sensor_id;sensor_type;location;lat;lon;timestamp;P1;durP1;ratioP1;P2;durP2;ratioP2
54599;SDS011;40500;51.084;16.958;2022-08-19T00:02:04;7.20;;;5.90;;
54599;SDS011;40500;51.084;16.958;2022-08-19T00:04:34;7.40;;;5.90;;
54599;SDS011;40500;51.084;16.958;2022-08-19T00:07:03;6.40;;;5.70;;
54599;SDS011;40500;51.084;16.958;2022-08-19T00:09:34;11.80;;;6.40;;
54599;SDS011;40500;51.084;16.958;2022-08-19T00:12:03;9.20;;;5.50;;
54599;SDS011;40500;51.084;16.958;2022-08-19T00:14:32;8.80;;;5.80;;
54599;SDS011;40500;51.084;16.958;2022-08-19T00:17:05;11.10;;;6.00;;
54599;SDS011;40500;51.084;16.958;2022-08-19T00:19:36;10.00;;;5.80;;
54599;SDS011;40500;51.084;16.958;2022-08-19T00:22:08;8.10;;;6.00;;
54599;SDS011;40500;51.084;16.958;2022-08-19T00:24:37;7.50;;;5.40;;
54599;SDS011;40500;51.084;16.958;2022-08-19T00:27:16;13.00;;;5.80;;
54599;SDS011;40500;51.084;16.958;2022-08-19T00:29:52;7.00;;;5.30;;
54599;SDS011;40500;51.084;16.958;2022-08-19T00:32:25;10.30;;;5.80;;
54599;SDS011;40500;51.084;16.958;2022-08-19T00:34:56;8.80;;;5.60;;
54599;SDS011;40500;51.084;16.958;2022-08-19T00:37:24;7.20;;;5.60;;
54599;SDS011;40500;51.084;16.958;2022-08-19T00:39:54;8.40;;;6.00;;
54599;SDS011;40500;51.084;16.958;2022-08-19T00:42:25;9.00;;;5.70;;
54599;SDS011;40500;51.084;16.958;2022-08-19T00:44:56;8.70;;;5.80;;
54599;SDS011;40500;51.084;16.958;2022-08-19T00:47:26;7.40;;;5.20;;
54599;SDS011;40500;51.084;16.958;2022-08-19T00:49:57;11.00;;;5.80;;
54599;SDS011;40500;51.084;16.958;2022-08-19T00:52:28;6.80;;;6.10;;
54599;SDS011;40500;51.084;16.958;2022-08-19T00:55:00;11.20;;;6.00;;
54599;SDS011;40500;51.084;16.958;2022-08-19T00:57:32;8.20;;;5.70;;
54599;SDS011;40500;51.084;16.958;2022-08-19T01:00:05;10.10;;;6.30;;
54599;SDS011;40500;51.084;16.958;2022-08-19T01:02:40;6.40;;;5.60;;
54599;SDS011;40500;51.084;16.958;2022-08-19T01:05:11;7.10;;;5.90;;
54599;SDS011;40500;51.084;16.958;2022-08-19T01:07:46;9.80;;;6.30;;
54599;SDS011;40500;51.084;16.958;2022-08-19T01:10:17;8.60;;;6.20;;
54599;SDS011;40500;51.084;16.958;2022-08-19T01:12:50;8.50;;;5.70;;
54599;SDS011;40500;51.084;16.958;2022-08-19T01:15:22;6.50;;;5.40;;
54599;SDS011;40500;51.084;16.958;2022-08-19T01:17:53;9.20;;;6.00;;
54599;SDS011;40500;51.084;16.958;2022-08-19T01:20:23;12.30;;;5.90;;
54599;SDS011;40500;51.084;16.958;2022-08-19T01:22:55;8.20;;;6.00;;
54599;SDS011;40500;51.084;16.958;2022-08-19T01:25:26;8.30;;;5.90;;
54599;SDS011;40500;51.084;16.958;2022-08-19T01:27:59;7.90;;;5.80;;
54599;SDS011;40500;51.084;16.958;2022-08-19T01:30:37;10.00;;;6.20;;
54599;SDS011;40500;51.084;16.958;2022-08-19T01:33:16;10.00;;;6.00;;
54599;SDS011;40500;51.084;16.958;2022-08-19T01:35:49;8.30;;;6.30;;
54599;SDS011;40500;51.084;16.958;2022-08-19T01:38:22;8.00;;;6.50;;
54599;SDS011;40500;51.084;16.958;2022-08-19T01:40:54;7.70;;;5.80;;
54599;SDS011;40500;51.084;16.958;2022-08-19T01:43:23;7.70;;;6.10;;
54599;SDS011;40500;51.084;16.958;2022-08-19T01:45:52;9.80;;;6.00;;
54599;SDS011;40500;51.084;16.958;2022-08-19T01:48:22;7.80;;;5.30;;
54599;SDS011;40500;51.084;16.958;2022-08-19T01:50:49;7.10;;;5.50;;
54599;SDS011;40500;51.084;16.958;2022-08-19T01:53:18;6.40;;;5.40;;
54599;SDS011;40500;51.084;16.958;2022-08-19T01:55:52;5.60;;;5.10;;
54599;SDS011;40500;51.084;16.958;2022-08-19T01:58:23;7.80;;;5.80;;
54599;SDS011;40500;51.084;16.958;2022-08-19T02:00:56;7.70;;;5.60;;
54599;SDS011;40500;51.084;16.958;2022-08-19T02:03:26;10.50;;;5.90;;
54599;SDS011;40500;51.084;16.958;2022-08-19T02:05:58;7.10;;;5.80;;
54599;SDS011;40500;51.084;16.958;2022-08-19T02:08:33;6.50;;;5.60;;
54599;SDS011;40500;51.084;16.958;2022-08-19T02:11:03;7.40;;;5.90;;
54599;SDS011;40500;51.084;16.958;2022-08-19T02:13:35;6.50;;;5.80;;
54599;SDS011;40500;51.084;16.958;2022-08-19T02:16:04;5.90;;;5.30;;
54599;SDS011;40500;51.084;16.958;2022-08-19T02:18:33;8.10;;;6.00;;
54599;SDS011;40500;51.084;16.958;2022-08-19T02:21:03;6.30;;;5.30;;
54599;SDS011;40500;51.084;16.958;2022-08-19T02:23:32;8.20;;;6.00;;
54599;SDS011;40500;51.084;16.958;2022-08-19T02:26:00;6.90;;;5.60;;
54599;SDS011;40500;51.084;16.958;2022-08-19T02:28:30;7.90;;;6.00;;
54599;SDS011;40500;51.084;16.958;2022-08-19T02:31:01;8.10;;;5.70;;
54599;SDS011;40500;51.084;16.958;2022-08-19T02:33:35;8.90;;;6.00;;
54599;SDS011;40500;51.084;16.958;2022-08-19T02:36:05;9.80;;;5.70;;
54599;SDS011;40500;51.084;16.958;2022-08-19T02:38:36;7.10;;;6.10;;
54599;SDS011;40500;51.084;16.958;2022-08-19T02:41:06;6.70;;;6.00;;
54599;SDS011;40500;51.084;16.958;2022-08-19T02:43:39;8.50;;;6.20;;
54599;SDS011;40500;51.084;16.958;2022-08-19T02:46:28;11.10;;;6.30;;
54599;SDS011;40500;51.084;16.958;2022-08-19T02:49:00;9.30;;;6.10;;
54599;SDS011;40500;51.084;16.958;2022-08-19T02:51:31;8.40;;;5.80;;
54599;SDS011;40500;51.084;16.958;2022-08-19T02:54:03;13.30;;;6.50;;
54599;SDS011;40500;51.084;16.958;2022-08-19T02:56:36;12.00;;;6.50;;
54599;SDS011;40500;51.084;16.958;2022-08-19T02:59:05;7.60;;;6.50;;
54599;SDS011;40500;51.084;16.958;2022-08-19T03:01:36;6.80;;;5.70;;
54599;SDS011;40500;51.084;16.958;2022-08-19T03:04:07;10.30;;;6.00;;
54599;SDS011;40500;51.084;16.958;2022-08-19T03:06:38;9.50;;;6.30;;
54599;SDS011;40500;51.084;16.958;2022-08-19T03:09:09;9.20;;;6.80;;
54599;SDS011;40500;51.084;16.958;2022-08-19T03:11:39;8.40;;;6.20;;
54599;SDS011;40500;51.084;16.958;2022-08-19T03:14:10;9.20;;;6.50;;
54599;SDS011;40500;51.084;16.958;2022-08-19T03:16:41;10.30;;;6.10;;
54599;SDS011;40500;51.084;16.958;2022-08-19T03:19:10;10.50;;;6.80;;
54599;SDS011;40500;51.084;16.958;2022-08-19T03:21:42;9.00;;;6.40;;
54599;SDS011;40500;51.084;16.958;2022-08-19T03:24:11;11.80;;;6.50;;
54599;SDS011;40500;51.084;16.958;2022-08-19T03:26:41;11.60;;;6.90;;
54599;SDS011;40500;51.084;16.958;2022-08-19T03:29:13;14.70;;;6.50;;
54599;SDS011;40500;51.084;16.958;2022-08-19T03:31:58;13.10;;;6.80;;
54599;SDS011;40500;51.084;16.958;2022-08-19T03:34:28;9.20;;;6.30;;
54599;SDS011;40500;51.084;16.958;2022-08-19T03:36:58;9.40;;;6.60;;
54599;SDS011;40500;51.084;16.958;2022-08-19T03:39:30;7.70;;;6.70;;
54599;SDS011;40500;51.084;16.958;2022-08-19T03:42:01;9.20;;;7.00;;
54599;SDS011;40500;51.084;16.958;2022-08-19T03:44:51;14.70;;;7.10;;
54599;SDS011;40500;51.084;16.958;2022-08-19T03:47:20;10.90;;;6.90;;
54599;SDS011;40500;51.084;16.958;2022-08-19T03:49:49;11.40;;;7.40;;
54599;SDS011;40500;51.084;16.958;2022-08-19T03:52:18;13.10;;;7.80;;
54599;SDS011;40500;51.084;16.958;2022-08-19T03:54:47;8.90;;;7.20;;
54599;SDS011;40500;51.084;16.958;2022-08-19T03:57:18;11.20;;;7.20;;
54599;SDS011;40500;51.084;16.958;2022-08-19T03:59:57;11.50;;;7.40;;
54599;SDS011;40500;51.084;16.958;2022-08-19T04:02:40;12.20;;;7.20;;
54599;SDS011;40500;51.084;16.958;2022-08-19T04:05:26;9.00;;;7.00;;
54599;SDS011;40500;51.084;16.958;2022-08-19T04:07:55;10.20;;;7.60;;
54599;SDS011;40500;51.084;16.958;2022-08-19T04:10:25;12.90;;;7.80;;
54599;SDS011;40500;51.084;16.958;2022-08-19T04:12:54;10.70;;;7.40;;
54599;SDS011;40500;51.084;16.958;2022-08-19T04:15:25;10.10;;;7.70;;
54599;SDS011;40500;51.084;16.958;2022-08-19T04:17:59;11.00;;;7.50;;
54599;SDS011;40500;51.084;16.958;2022-08-19T04:20:29;13.00;;;7.30;;
54599;SDS011;40500;51.084;16.958;2022-08-19T04:22:58;11.90;;;7.70;;
54599;SDS011;40500;51.084;16.958;2022-08-19T04:25:28;9.70;;;7.60;;
54599;SDS011;40500;51.084;16.958;2022-08-19T04:28:04;9.40;;;7.70;;
54599;SDS011;40500;51.084;16.958;2022-08-19T04:30:38;11.20;;;8.00;;
54599;SDS011;40500;51.084;16.958;2022-08-19T04:33:08;10.70;;;7.80;;
54599;SDS011;40500;51.084;16.958;2022-08-19T04:35:38;11.80;;;7.90;;
54599;SDS011;40500;51.084;16.958;2022-08-19T04:38:08;16.40;;;6.90;;
54599;SDS011;40500;51.084;16.958;2022-08-19T04:40:40;12.20;;;7.70;;
54599;SDS011;40500;51.084;16.958;2022-08-19T04:43:27;14.30;;;8.60;;
54599;SDS011;40500;51.084;16.958;2022-08-19T04:45:56;13.40;;;8.50;;
54599;SDS011;40500;51.084;16.958;2022-08-19T04:48:27;20.80;;;8.50;;
54599;SDS011;40500;51.084;16.958;2022-08-19T04:51:05;14.80;;;8.10;;
54599;SDS011;40500;51.084;16.958;2022-08-19T04:53:35;22.50;;;9.10;;
54599;SDS011;40500;51.084;16.958;2022-08-19T04:56:07;11.30;;;7.90;;
54599;SDS011;40500;51.084;16.958;2022-08-19T04:58:38;9.40;;;8.20;;
54599;SDS011;40500;51.084;16.958;2022-08-19T05:01:09;17.60;;;9.10;;
54599;SDS011;40500;51.084;16.958;2022-08-19T05:03:42;11.20;;;8.50;;
54599;SDS011;40500;51.084;16.958;2022-08-19T05:06:13;12.90;;;8.80;;
54599;SDS011;40500;51.084;16.958;2022-08-19T05:08:44;13.50;;;8.60;;
54599;SDS011;40500;51.084;16.958;2022-08-19T05:11:17;11.30;;;8.40;;
54599;SDS011;40500;51.084;16.958;2022-08-19T05:13:52;13.80;;;9.00;;
54599;SDS011;40500;51.084;16.958;2022-08-19T05:16:22;11.80;;;8.90;;
54599;SDS011;40500;51.084;16.958;2022-08-19T05:18:53;11.00;;;8.20;;
54599;SDS011;40500;51.084;16.958;2022-08-19T05:21:40;43.40;;;10.50;;
54599;SDS011;40500;51.084;16.958;2022-08-19T05:24:33;13.70;;;8.10;;
54599;SDS011;40500;51.084;16.958;2022-08-19T05:27:17;12.90;;;8.30;;
54599;SDS011;40500;51.084;16.958;2022-08-19T05:29:46;12.80;;;8.80;;
54599;SDS011;40500;51.084;16.958;2022-08-19T05:32:15;10.90;;;8.50;;
54599;SDS011;40500;51.084;16.958;2022-08-19T05:34:44;10.00;;;8.10;;
54599;SDS011;40500;51.084;16.958;2022-08-19T05:37:14;11.60;;;9.70;;
54599;SDS011;40500;51.084;16.958;2022-08-19T05:39:48;12.30;;;9.00;;
54599;SDS011;40500;51.084;16.958;2022-08-19T05:42:17;14.50;;;8.60;;
54599;SDS011;40500;51.084;16.958;2022-08-19T05:44:48;9.80;;;8.50;;
54599;SDS011;40500;51.084;16.958;2022-08-19T05:47:18;11.50;;;8.10;;
54599;SDS011;40500;51.084;16.958;2022-08-19T05:49:47;12.00;;;8.10;;
54599;SDS011;40500;51.084;16.958;2022-08-19T05:52:17;11.70;;;8.00;;
54599;SDS011;40500;51.084;16.958;2022-08-19T05:54:52;12.70;;;9.20;;
54599;SDS011;40500;51.084;16.958;2022-08-19T05:57:23;11.00;;;8.40;;
54599;SDS011;40500;51.084;16.958;2022-08-19T05:59:51;14.20;;;8.70;;
54599;SDS011;40500;51.084;16.958;2022-08-19T06:02:24;11.30;;;8.70;;
54599;SDS011;40500;51.084;16.958;2022-08-19T06:04:53;9.00;;;8.00;;
54599;SDS011;40500;51.084;16.958;2022-08-19T06:07:21;11.40;;;8.70;;
54599;SDS011;40500;51.084;16.958;2022-08-19T06:09:50;11.40;;;8.80;;
54599;SDS011;40500;51.084;16.958;2022-08-19T06:12:28;11.70;;;8.20;;
54599;SDS011;40500;51.084;16.958;2022-08-19T06:14:59;13.30;;;8.50;;
54599;SDS011;40500;51.084;16.958;2022-08-19T06:17:30;14.20;;;8.30;;
54599;SDS011;40500;51.084;16.958;2022-08-19T06:20:02;9.70;;;8.00;;
54599;SDS011;40500;51.084;16.958;2022-08-19T06:22:31;11.70;;;9.00;;
54599;SDS011;40500;51.084;16.958;2022-08-19T06:25:04;15.10;;;8.70;;
54599;SDS011;40500;51.084;16.958;2022-08-19T06:27:35;12.90;;;8.50;;
54599;SDS011;40500;51.084;16.958;2022-08-19T06:30:19;11.60;;;9.10;;
54599;SDS011;40500;51.084;16.958;2022-08-19T06:32:48;12.00;;;9.50;;
54599;SDS011;40500;51.084;16.958;2022-08-19T06:35:19;11.10;;;8.80;;
54599;SDS011;40500;51.084;16.958;2022-08-19T06:37:49;13.20;;;8.90;;
54599;SDS011;40500;51.084;16.958;2022-08-19T06:40:19;13.50;;;9.10;;
54599;SDS011;40500;51.084;16.958;2022-08-19T06:42:48;16.20;;;9.20;;
54599;SDS011;40500;51.084;16.958;2022-08-19T06:45:21;14.10;;;8.50;;
54599;SDS011;40500;51.084;16.958;2022-08-19T06:48:00;12.70;;;8.90;;
54599;SDS011;40500;51.084;16.958;2022-08-19T06:50:29;12.40;;;8.30;;
54599;SDS011;40500;51.084;16.958;2022-08-19T06:52:56;15.60;;;8.50;;
54599;SDS011;40500;51.084;16.958;2022-08-19T06:55:30;12.50;;;8.10;;
54599;SDS011;40500;51.084;16.958;2022-08-19T06:58:01;16.10;;;8.00;;
54599;SDS011;40500;51.084;16.958;2022-08-19T07:00:30;11.80;;;7.60;;
54599;SDS011;40500;51.084;16.958;2022-08-19T07:03:02;18.10;;;7.70;;
54599;SDS011;40500;51.084;16.958;2022-08-19T07:05:38;10.60;;;7.50;;
54599;SDS011;40500;51.084;16.958;2022-08-19T07:08:11;11.10;;;7.30;;
54599;SDS011;40500;51.084;16.958;2022-08-19T07:10:42;25.20;;;8.70;;
54599;SDS011;40500;51.084;16.958;2022-08-19T07:13:11;17.40;;;7.30;;
54599;SDS011;40500;51.084;16.958;2022-08-19T07:15:39;15.70;;;7.80;;
54599;SDS011;40500;51.084;16.958;2022-08-19T07:18:07;12.90;;;8.00;;
54599;SDS011;40500;51.084;16.958;2022-08-19T07:20:38;20.70;;;8.10;;
54599;SDS011;40500;51.084;16.958;2022-08-19T07:23:08;19.30;;;7.60;;
54599;SDS011;40500;51.084;16.958;2022-08-19T07:25:44;23.20;;;7.90;;
54599;SDS011;40500;51.084;16.958;2022-08-19T07:28:19;18.50;;;7.30;;
54599;SDS011;40500;51.084;16.958;2022-08-19T07:30:50;11.30;;;6.70;;
54599;SDS011;40500;51.084;16.958;2022-08-19T07:33:19;12.60;;;6.80;;
54599;SDS011;40500;51.084;16.958;2022-08-19T07:35:47;11.60;;;7.10;;
54599;SDS011;40500;51.084;16.958;2022-08-19T07:38:15;18.40;;;6.60;;
54599;SDS011;40500;51.084;16.958;2022-08-19T07:40:44;10.20;;;6.50;;
54599;SDS011;40500;51.084;16.958;2022-08-19T07:43:12;8.00;;;6.30;;
54599;SDS011;40500;51.084;16.958;2022-08-19T07:45:44;21.50;;;6.80;;
54599;SDS011;40500;51.084;16.958;2022-08-19T07:48:13;21.00;;;6.30;;
54599;SDS011;40500;51.084;16.958;2022-08-19T07:50:41;17.20;;;6.50;;
54599;SDS011;40500;51.084;16.958;2022-08-19T07:53:08;13.70;;;6.50;;
54599;SDS011;40500;51.084;16.958;2022-08-19T07:55:38;7.50;;;6.10;;
54599;SDS011;40500;51.084;16.958;2022-08-19T07:58:10;11.40;;;5.80;;
54599;SDS011;40500;51.084;16.958;2022-08-19T08:00:40;15.30;;;5.70;;
54599;SDS011;40500;51.084;16.958;2022-08-19T08:03:08;18.00;;;6.20;;
54599;SDS011;40500;51.084;16.958;2022-08-19T08:05:35;11.50;;;5.80;;
54599;SDS011;40500;51.084;16.958;2022-08-19T08:08:22;12.50;;;6.20;;
54599;SDS011;40500;51.084;16.958;2022-08-19T08:11:14;9.20;;;6.00;;
54599;SDS011;40500;51.084;16.958;2022-08-19T08:13:45;10.40;;;5.20;;
54599;SDS011;40500;51.084;16.958;2022-08-19T08:16:31;15.50;;;5.30;;
54599;SDS011;40500;51.084;16.958;2022-08-19T08:19:06;10.50;;;5.80;;
54599;SDS011;40500;51.084;16.958;2022-08-19T08:21:51;11.60;;;5.40;;
54599;SDS011;40500;51.084;16.958;2022-08-19T08:24:20;13.20;;;4.90;;
54599;SDS011;40500;51.084;16.958;2022-08-19T08:26:47;8.20;;;5.00;;
54599;SDS011;40500;51.084;16.958;2022-08-19T08:29:18;7.40;;;4.90;;
54599;SDS011;40500;51.084;16.958;2022-08-19T08:31:46;8.30;;;5.70;;
54599;SDS011;40500;51.084;16.958;2022-08-19T08:34:24;7.60;;;4.90;;
54599;SDS011;40500;51.084;16.958;2022-08-19T08:36:51;8.40;;;5.00;;
54599;SDS011;40500;51.084;16.958;2022-08-19T08:39:20;10.50;;;5.10;;
54599;SDS011;40500;51.084;16.958;2022-08-19T08:41:51;8.00;;;4.90;;
54599;SDS011;40500;51.084;16.958;2022-08-19T08:44:23;10.40;;;4.60;;
54599;SDS011;40500;51.084;16.958;2022-08-19T08:46:56;8.50;;;5.00;;
54599;SDS011;40500;51.084;16.958;2022-08-19T08:49:29;6.20;;;4.60;;
54599;SDS011;40500;51.084;16.958;2022-08-19T08:52:10;12.60;;;5.00;;
54599;SDS011;40500;51.084;16.958;2022-08-19T08:54:44;8.20;;;4.80;;
54599;SDS011;40500;51.084;16.958;2022-08-19T08:57:23;9.50;;;5.40;;
54599;SDS011;40500;51.084;16.958;2022-08-19T09:00:17;9.30;;;4.70;;
54599;SDS011;40500;51.084;16.958;2022-08-19T09:02:47;13.60;;;5.20;;
54599;SDS011;40500;51.084;16.958;2022-08-19T09:05:17;7.30;;;4.30;;
54599;SDS011;40500;51.084;16.958;2022-08-19T09:07:50;10.30;;;4.70;;
54599;SDS011;40500;51.084;16.958;2022-08-19T09:10:31;12.00;;;5.20;;
54599;SDS011;40500;51.084;16.958;2022-08-19T09:13:15;10.70;;;5.00;;
54599;SDS011;40500;51.084;16.958;2022-08-19T09:15:52;7.40;;;4.60;;
54599;SDS011;40500;51.084;16.958;2022-08-19T09:18:25;9.40;;;4.40;;
54599;SDS011;40500;51.084;16.958;2022-08-19T09:21:04;7.20;;;4.60;;
54599;SDS011;40500;51.084;16.958;2022-08-19T09:23:33;8.80;;;5.10;;
54599;SDS011;40500;51.084;16.958;2022-08-19T09:26:04;6.90;;;4.70;;
54599;SDS011;40500;51.084;16.958;2022-08-19T09:28:36;8.70;;;5.10;;
54599;SDS011;40500;51.084;16.958;2022-08-19T09:31:05;7.80;;;4.50;;
54599;SDS011;40500;51.084;16.958;2022-08-19T09:33:32;11.00;;;5.30;;
54599;SDS011;40500;51.084;16.958;2022-08-19T09:36:04;5.10;;;4.60;;
54599;SDS011;40500;51.084;16.958;2022-08-19T09:38:35;11.00;;;4.40;;
54599;SDS011;40500;51.084;16.958;2022-08-19T09:41:11;8.10;;;4.70;;
54599;SDS011;40500;51.084;16.958;2022-08-19T09:43:41;8.00;;;5.00;;
54599;SDS011;40500;51.084;16.958;2022-08-19T09:46:14;7.20;;;4.30;;
54599;SDS011;40500;51.084;16.958;2022-08-19T09:48:44;10.10;;;4.90;;
54599;SDS011;40500;51.084;16.958;2022-08-19T09:51:16;8.10;;;4.90;;
54599;SDS011;40500;51.084;16.958;2022-08-19T09:53:47;7.60;;;4.40;;
54599;SDS011;40500;51.084;16.958;2022-08-19T09:56:19;7.60;;;3.80;;
54599;SDS011;40500;51.084;16.958;2022-08-19T09:58:48;8.20;;;4.40;;
54599;SDS011;40500;51.084;16.958;2022-08-19T10:01:17;8.30;;;4.70;;
54599;SDS011;40500;51.084;16.958;2022-08-19T10:03:48;5.90;;;4.20;;
54599;SDS011;40500;51.084;16.958;2022-08-19T10:06:16;34.80;;;5.90;;
54599;SDS011;40500;51.084;16.958;2022-08-19T10:09:05;15.20;;;4.50;;
54599;SDS011;40500;51.084;16.958;2022-08-19T10:11:36;11.30;;;4.10;;
54599;SDS011;40500;51.084;16.958;2022-08-19T10:14:18;6.50;;;4.10;;
54599;SDS011;40500;51.084;16.958;2022-08-19T10:16:48;9.60;;;4.70;;
54599;SDS011;40500;51.084;16.958;2022-08-19T10:19:17;7.70;;;4.30;;
54599;SDS011;40500;51.084;16.958;2022-08-19T10:21:52;8.20;;;4.00;;
54599;SDS011;40500;51.084;16.958;2022-08-19T10:24:26;7.60;;;3.70;;
54599;SDS011;40500;51.084;16.958;2022-08-19T10:26:54;5.20;;;3.90;;
54599;SDS011;40500;51.084;16.958;2022-08-19T10:29:25;7.20;;;3.50;;
54599;SDS011;40500;51.084;16.958;2022-08-19T10:31:59;8.90;;;3.80;;
54599;SDS011;40500;51.084;16.958;2022-08-19T10:34:29;5.10;;;3.20;;
54599;SDS011;40500;51.084;16.958;2022-08-19T10:36:58;14.80;;;3.90;;
54599;SDS011;40500;51.084;16.958;2022-08-19T10:39:28;10.10;;;3.60;;
54599;SDS011;40500;51.084;16.958;2022-08-19T10:42:07;8.20;;;3.60;;
54599;SDS011;40500;51.084;16.958;2022-08-19T10:44:37;7.70;;;3.30;;
54599;SDS011;40500;51.084;16.958;2022-08-19T10:47:05;7.00;;;3.40;;
54599;SDS011;40500;51.084;16.958;2022-08-19T10:49:50;5.50;;;3.30;;
54599;SDS011;40500;51.084;16.958;2022-08-19T10:52:38;8.40;;;3.80;;
54599;SDS011;40500;51.084;16.958;2022-08-19T10:55:16;10.10;;;3.40;;
54599;SDS011;40500;51.084;16.958;2022-08-19T10:58:06;11.30;;;4.10;;
54599;SDS011;40500;51.084;16.958;2022-08-19T11:00:37;37.20;;;5.10;;
54599;SDS011;40500;51.084;16.958;2022-08-19T11:03:06;16.10;;;4.10;;
54599;SDS011;40500;51.084;16.958;2022-08-19T11:05:35;5.00;;;3.30;;
54599;SDS011;40500;51.084;16.958;2022-08-19T11:08:06;4.40;;;3.30;;
54599;SDS011;40500;51.084;16.958;2022-08-19T11:10:49;5.20;;;3.20;;
54599;SDS011;40500;51.084;16.958;2022-08-19T11:13:25;13.10;;;4.50;;
54599;SDS011;40500;51.084;16.958;2022-08-19T11:15:57;4.00;;;3.50;;
54599;SDS011;40500;51.084;16.958;2022-08-19T11:18:32;10.30;;;3.70;;
54599;SDS011;40500;51.084;16.958;2022-08-19T11:21:05;8.70;;;3.30;;
54599;SDS011;40500;51.084;16.958;2022-08-19T11:23:34;5.30;;;3.30;;
54599;SDS011;40500;51.084;16.958;2022-08-19T11:26:03;20.50;;;4.00;;
54599;SDS011;40500;51.084;16.958;2022-08-19T11:28:31;4.90;;;2.20;;
54599;SDS011;40500;51.084;16.958;2022-08-19T11:30:58;3.20;;;2.30;;
54599;SDS011;40500;51.084;16.958;2022-08-19T11:33:27;2.80;;;2.10;;
54599;SDS011;40500;51.084;16.958;2022-08-19T11:35:56;3.50;;;2.00;;
54599;SDS011;40500;51.084;16.958;2022-08-19T11:38:25;7.70;;;2.00;;
54599;SDS011;40500;51.084;16.958;2022-08-19T11:40:57;2.60;;;1.90;;
54599;SDS011;40500;51.084;16.958;2022-08-19T11:43:26;7.10;;;2.00;;
54599;SDS011;40500;51.084;16.958;2022-08-19T11:45:54;10.80;;;2.30;;
54599;SDS011;40500;51.084;16.958;2022-08-19T11:48:23;6.40;;;2.00;;
54599;SDS011;40500;51.084;16.958;2022-08-19T11:50:52;3.70;;;1.70;;
54599;SDS011;40500;51.084;16.958;2022-08-19T11:53:22;6.60;;;2.10;;
54599;SDS011;40500;51.084;16.958;2022-08-19T11:55:52;3.10;;;1.80;;
54599;SDS011;40500;51.084;16.958;2022-08-19T11:58:22;6.20;;;2.00;;
54599;SDS011;40500;51.084;16.958;2022-08-19T12:00:50;3.70;;;2.00;;
54599;SDS011;40500;51.084;16.958;2022-08-19T12:03:18;3.30;;;1.80;;
54599;SDS011;40500;51.084;16.958;2022-08-19T12:05:46;4.90;;;1.90;;
54599;SDS011;40500;51.084;16.958;2022-08-19T12:08:14;6.10;;;2.60;;
54599;SDS011;40500;51.084;16.958;2022-08-19T12:10:42;3.60;;;2.20;;
54599;SDS011;40500;51.084;16.958;2022-08-19T12:13:10;5.40;;;2.80;;
54599;SDS011;40500;51.084;16.958;2022-08-19T12:15:45;3.60;;;2.60;;
54599;SDS011;40500;51.084;16.958;2022-08-19T12:18:13;3.60;;;2.20;;
54599;SDS011;40500;51.084;16.958;2022-08-19T12:20:42;3.10;;;2.10;;
54599;SDS011;40500;51.084;16.958;2022-08-19T12:23:12;3.40;;;2.50;;
54599;SDS011;40500;51.084;16.958;2022-08-19T12:25:44;6.50;;;2.60;;
54599;SDS011;40500;51.084;16.958;2022-08-19T12:28:16;9.00;;;2.20;;
54599;SDS011;40500;51.084;16.958;2022-08-19T12:30:44;9.00;;;2.50;;
54599;SDS011;40500;51.084;16.958;2022-08-19T12:33:11;4.60;;;2.30;;
54599;SDS011;40500;51.084;16.958;2022-08-19T12:35:40;2.90;;;2.40;;
54599;SDS011;40500;51.084;16.958;2022-08-19T12:38:11;3.70;;;2.60;;
54599;SDS011;40500;51.084;16.958;2022-08-19T12:40:41;2.50;;;2.30;;
54599;SDS011;40500;51.084;16.958;2022-08-19T12:43:11;4.90;;;2.40;;
54599;SDS011;40500;51.084;16.958;2022-08-19T12:45:41;2.80;;;2.50;;
54599;SDS011;40500;51.084;16.958;2022-08-19T12:48:13;5.50;;;2.50;;
54599;SDS011;40500;51.084;16.958;2022-08-19T12:51:05;2.70;;;2.00;;
54599;SDS011;40500;51.084;16.958;2022-08-19T12:53:34;2.40;;;2.00;;
54599;SDS011;40500;51.084;16.958;2022-08-19T12:56:05;3.30;;;2.30;;
54599;SDS011;40500;51.084;16.958;2022-08-19T12:58:38;10.10;;;2.50;;
54599;SDS011;40500;51.084;16.958;2022-08-19T13:01:15;5.50;;;2.30;;
54599;SDS011;40500;51.084;16.958;2022-08-19T13:03:48;4.20;;;2.00;;
54599;SDS011;40500;51.084;16.958;2022-08-19T13:06:17;9.20;;;2.40;;
54599;SDS011;40500;51.084;16.958;2022-08-19T13:08:46;14.00;;;2.30;;
54599;SDS011;40500;51.084;16.958;2022-08-19T13:11:15;34.00;;;4.00;;
54599;SDS011;40500;51.084;16.958;2022-08-19T13:13:44;7.40;;;2.70;;
54599;SDS011;40500;51.084;16.958;2022-08-19T13:16:15;6.10;;;2.30;;
54599;SDS011;40500;51.084;16.958;2022-08-19T13:18:44;8.40;;;2.10;;
54599;SDS011;40500;51.084;16.958;2022-08-19T13:21:13;9.00;;;2.70;;
54599;SDS011;40500;51.084;16.958;2022-08-19T13:23:41;11.00;;;2.80;;
54599;SDS011;40500;51.084;16.958;2022-08-19T13:26:10;7.50;;;2.30;;
54599;SDS011;40500;51.084;16.958;2022-08-19T13:28:39;6.40;;;2.50;;
54599;SDS011;40500;51.084;16.958;2022-08-19T13:31:26;6.50;;;2.40;;
54599;SDS011;40500;51.084;16.958;2022-08-19T13:34:14;4.30;;;2.20;;
54599;SDS011;40500;51.084;16.958;2022-08-19T13:36:43;3.50;;;2.00;;
54599;SDS011;40500;51.084;16.958;2022-08-19T13:39:11;6.10;;;2.20;;
54599;SDS011;40500;51.084;16.958;2022-08-19T13:41:43;6.50;;;2.50;;
54599;SDS011;40500;51.084;16.958;2022-08-19T13:44:14;4.90;;;1.90;;
54599;SDS011;40500;51.084;16.958;2022-08-19T13:46:44;13.50;;;2.50;;
54599;SDS011;40500;51.084;16.958;2022-08-19T13:49:13;8.30;;;2.30;;
54599;SDS011;40500;51.084;16.958;2022-08-19T13:51:41;10.60;;;2.40;;
54599;SDS011;40500;51.084;16.958;2022-08-19T13:54:09;7.10;;;2.30;;
54599;SDS011;40500;51.084;16.958;2022-08-19T13:56:40;5.30;;;2.70;;
54599;SDS011;40500;51.084;16.958;2022-08-19T13:59:08;5.10;;;2.10;;
54599;SDS011;40500;51.084;16.958;2022-08-19T14:01:37;8.20;;;2.90;;
54599;SDS011;40500;51.084;16.958;2022-08-19T14:04:05;4.20;;;2.60;;
54599;SDS011;40500;51.084;16.958;2022-08-19T14:06:33;5.40;;;2.60;;
54599;SDS011;40500;51.084;16.958;2022-08-19T14:09:01;3.80;;;2.40;;
54599;SDS011;40500;51.084;16.958;2022-08-19T14:11:31;7.00;;;2.80;;
54599;SDS011;40500;51.084;16.958;2022-08-19T14:13:59;2.70;;;2.40;;
54599;SDS011;40500;51.084;16.958;2022-08-19T14:16:26;4.50;;;2.90;;
54599;SDS011;40500;51.084;16.958;2022-08-19T14:18:56;5.50;;;2.50;;
54599;SDS011;40500;51.084;16.958;2022-08-19T14:21:24;5.40;;;2.50;;
54599;SDS011;40500;51.084;16.958;2022-08-19T14:23:52;7.20;;;2.70;;
54599;SDS011;40500;51.084;16.958;2022-08-19T14:26:20;5.00;;;2.80;;
54599;SDS011;40500;51.084;16.958;2022-08-19T14:28:48;4.80;;;2.50;;
54599;SDS011;40500;51.084;16.958;2022-08-19T14:31:16;5.40;;;2.70;;
54599;SDS011;40500;51.084;16.958;2022-08-19T14:33:45;7.40;;;2.70;;
54599;SDS011;40500;51.084;16.958;2022-08-19T14:36:14;3.40;;;2.60;;
54599;SDS011;40500;51.084;16.958;2022-08-19T14:38:42;5.10;;;2.60;;
54599;SDS011;40500;51.084;16.958;2022-08-19T14:41:12;5.40;;;2.40;;
54599;SDS011;40500;51.084;16.958;2022-08-19T14:43:42;5.40;;;2.60;;
54599;SDS011;40500;51.084;16.958;2022-08-19T14:46:12;4.20;;;2.70;;
54599;SDS011;40500;51.084;16.958;2022-08-19T14:48:43;4.30;;;3.00;;
54599;SDS011;40500;51.084;16.958;2022-08-19T14:51:10;9.80;;;4.80;;
54599;SDS011;40500;51.084;16.958;2022-08-19T14:53:38;8.80;;;5.20;;
54599;SDS011;40500;51.084;16.958;2022-08-19T14:56:09;9.50;;;5.70;;